Laneview, Virginia
Current Conditions -  °F | °C
As of 4:35 PM on Wednesday 26 Nov 2014 (Local Time) from KXSA Reporting Station
Light Rain Light Rain  
Wind Chill: 31°   Ceiling: 700
Heat Index: 37°   Visibility: 4mi
Dew Point: 33°   Wind: 9mph
Humidity: 86%   Direction: 290°WNW
Pressure: 29.94"   Gusts: NA
Location:  37.76°N, 76.72°W
Report Text: KXSA 262135Z AUTO 29008KT 4SM -RA OVC007 03/01 A2994 RMK AO2 T00290008
Loading
Personal Weather Stations






























Interactive Weather Map New forecast layout! Learn more

10-Day Weather Forecast

Advertisements
Track Severe Weather on mobile